Amanda Park, Washington
Current Conditions -  °F | °C
As of 1:53 PM on Tuesday 21 Oct 2014 (Local Time) from KHQM Reporting Station
Light Rain Light Rain  
Wind Chill: 60°   Ceiling: 4300
Heat Index: 60°   Visibility: 5mi
Dew Point: 55°   Wind: 16mph
Humidity: 83%   Direction: 160°SSE
Pressure: 29.88"   Gusts: 29mph
Location:  47.46°N, 123.89°W
Report Text: KHQM 212053Z AUTO 16014G25KT 5SM -RA SCT021 BKN043 OVC065 16/13 A2988 RMK AO2 RAB19E30B53 SLP121 P0000 60000 T01560128 58007
Loading
Personal Weather Stations






























Interactive Weather Map New forecast layout! Learn more

10-Day Weather Forecast

Advertisements
Track Severe Weather on mobile